Time;durP1;ratioP1;P1;durP2;ratioP2;P2;SDS_P1;SDS_P2;PMS_P1;PMS_P2;Temp;Humidity;BMP_temperature;BMP_pressure;BME280_temperature;BME280_humidity;BME280_pressure;Samples;Min_cycle;Max_cycle;Signal;HPM_P1;HPM_P2
2023/05/27 00:02:04;;;;;;;;;;;;;;;9.38;100.00;102894.84;5030686;28;19925;-87
2023/05/27 00:04:30;;;;;;;;;;;;;;;9.47;100.00;102896.28;5026237;28;19921;-87
2023/05/27 00:06:55;;;;;;;;;;;;;;;9.39;100.00;102891.25;5025816;28;19959;-86
2023/05/27 00:09:21;;;;;;;;;;;;;;;9.39;100.00;102891.25;5049491;28;19917;-87
2023/05/27 00:11:46;;;;;;;;;;;;;;;9.29;100.00;102888.03;5024914;28;20252;-87
2023/05/27 00:14:12;;;;;;;;;;;;;;;9.35;100.00;102894.97;5033199;28;19940;-86
2023/05/27 00:16:37;;;;;;;;;;;;;;;9.18;100.00;102899.16;5023933;28;20035;-86
2023/05/27 00:19:02;;;;;;;;;;;;;;;9.18;100.00;102884.91;5028390;28;20330;-87
2023/05/27 00:21:28;;;;;;;;;;;;;;;9.20;100.00;102891.94;5030130;28;19925;-86
2023/05/27 00:23:53;;;;;;;;;;;;;;;9.06;100.00;102881.75;5041223;28;19925;-88
2023/05/27 00:26:18;;;;;;;;;;;;;;;8.91;100.00;102880.53;5026676;28;20086;-86
2023/05/27 00:28:43;;;;;;;;;;;;;;;9.04;100.00;102877.41;5023671;28;19921;-87
2023/05/27 00:31:09;;;;;;;;;;;;;;;8.99;100.00;102880.28;5042143;28;19917;-87
2023/05/27 00:33:34;;;;;;;;;;;;;;;8.91;100.00;102883.22;5024261;28;19921;-87
2023/05/27 00:35:59;;;;;;;;;;;;;;;8.96;100.00;102881.25;5024886;28;19967;-87
2023/05/27 00:38:26;;;;;;;;;;;;;;;8.81;100.00;102861.28;5042333;28;19960;-86
2023/05/27 00:40:52;;;;;;;;;;;;;;;8.80;100.00;102878.28;5023889;28;19971;-87
2023/05/27 00:43:18;;;;;;;;;;;;;;;8.74;100.00;102874.97;5022471;28;20341;-86
2023/05/27 00:45:43;;;;;;;;;;;;;;;8.65;100.00;102876.19;5024916;28;20821;-87
2023/05/27 00:48:08;;;;;;;;;;;;;;;8.62;100.00;102873.63;5021680;28;20156;-86
2023/05/27 00:50:33;;;;;;;;;;;;;;;8.59;100.00;102871.94;5040661;28;20387;-87
2023/05/27 00:52:59;;;;;;;;;;;;;;;8.55;100.00;102870.31;5024704;28;20358;-86
2023/05/27 00:55:24;;;;;;;;;;;;;;;8.58;100.00;102867.53;5026366;28;19924;-87
2023/05/27 00:57:49;;;;;;;;;;;;;;;8.61;100.00;102875.41;5056166;28;19920;-87
2023/05/27 01:00:15;;;;;;;;;;;;;;;8.64;100.00;102877.97;5026487;28;20007;-87
2023/05/27 01:02:40;;;;;;;;;;;;;;;8.51;100.00;102869.53;5022828;28;19935;-86
2023/05/27 01:05:07;;;;;;;;;;;;;;;8.55;100.00;102868.47;5021376;28;19920;-87
2023/05/27 01:07:32;;;;;;;;;;;;;;;8.47;100.00;102857.16;5025353;28;19954;-87
2023/05/27 01:09:58;;;;;;;;;;;;;;;8.41;100.00;102854.72;5039351;28;19921;-88
2023/05/27 01:12:47;;;;;;;;;;;;;;;8.43;100.00;102858.22;5039232;28;19917;-86
2023/05/27 01:15:12;;;;;;;;;;;;;;;8.49;100.00;102862.50;5041068;28;20347;-87
2023/05/27 01:17:42;;;;;;;;;;;;;;;8.39;100.00;102859.25;5020427;28;19962;-85
2023/05/27 01:20:10;;;;;;;;;;;;;;;8.40;100.00;102855.63;5040703;28;19924;-87
2023/05/27 01:22:35;;;;;;;;;;;;;;;8.35;100.00;102855.78;5024717;28;19985;-86
2023/05/27 01:25:01;;;;;;;;;;;;;;;8.41;100.00;102852.88;5025074;28;20286;-86
2023/05/27 01:27:27;;;;;;;;;;;;;;;8.40;100.00;102855.63;5023930;28;19929;-86
2023/05/27 01:29:52;;;;;;;;;;;;;;;8.32;100.00;102845.22;5021851;28;19921;-87
2023/05/27 01:32:18;;;;;;;;;;;;;;;8.30;100.00;102852.44;5022520;28;19928;-86
2023/05/27 01:34:53;;;;;;;;;;;;;;;8.29;100.00;102849.78;5023635;28;21125;-86
2023/05/27 01:37:19;;;;;;;;;;;;;;;8.17;100.00;102843.97;5021827;28;19966;-86
2023/05/27 01:39:44;;;;;;;;;;;;;;;8.24;100.00;102847.28;5054564;28;20379;-86
2023/05/27 01:42:09;;;;;;;;;;;;;;;8.19;100.00;102843.91;5036576;28;19983;-87
2023/05/27 01:44:35;;;;;;;;;;;;;;;8.11;100.00;102849.53;5025824;28;19928;-85
2023/05/27 01:47:01;;;;;;;;;;;;;;;8.12;100.00;102845.91;5041255;28;20043;-86
2023/05/27 01:49:27;;;;;;;;;;;;;;;8.06;100.00;102843.47;5024113;28;20000;-87
2023/05/27 01:51:52;;;;;;;;;;;;;;;8.11;100.00;102841.50;5025268;28;19921;-85
2023/05/27 01:54:17;;;;;;;;;;;;;;;8.13;100.00;102852.13;5027268;28;20291;-86
2023/05/27 01:56:42;;;;;;;;;;;;;;;8.16;100.00;102852.03;5022421;28;20390;-85
2023/05/27 01:59:07;;;;;;;;;;;;;;;8.10;100.00;102847.78;5023281;28;20357;-87
2023/05/27 02:01:33;;;;;;;;;;;;;;;8.05;100.00;102850.63;5025296;28;20626;-86
2023/05/27 02:03:59;;;;;;;;;;;;;;;8.03;100.00;102839.09;5036108;28;19925;-87
2023/05/27 02:06:25;;;;;;;;;;;;;;;7.98;100.00;102843.72;5029960;28;19917;-87
2023/05/27 02:08:50;;;;;;;;;;;;;;;8.05;100.00;102847.94;5024774;28;19956;-86
2023/05/27 02:11:15;;;;;;;;;;;;;;;7.99;100.00;102849.94;5019742;28;20342;-88
2023/05/27 02:13:41;;;;;;;;;;;;;;;7.99;100.00;102849.94;5016809;28;19921;-87
2023/05/27 02:16:06;;;;;;;;;;;;;;;7.95;100.00;102857.22;5034834;28;19921;-88
2023/05/27 02:18:32;;;;;;;;;;;;;;;7.92;100.00;102850.19;5022369;28;19961;-87
2023/05/27 02:20:57;;;;;;;;;;;;;;;7.89;100.00;102846.72;5027201;28;19921;-88
2023/05/27 02:23:23;;;;;;;;;;;;;;;7.83;100.00;102841.56;5025946;28;20016;-88
2023/05/27 02:25:49;;;;;;;;;;;;;;;7.75;100.00;102837.38;5028440;28;20019;-85
2023/05/27 02:28:14;;;;;;;;;;;;;;;7.71;100.00;102843.75;5018854;28;19925;-87
2023/05/27 02:30:39;;;;;;;;;;;;;;;7.65;100.00;102843.94;5019752;28;20690;-87
2023/05/27 02:33:04;;;;;;;;;;;;;;;7.68;100.00;102851.88;5036192;28;20271;-86
2023/05/27 02:35:30;;;;;;;;;;;;;;;7.69;100.00;102844.72;5023644;28;19925;-87
2023/05/27 02:37:55;;;;;;;;;;;;;;;7.68;100.00;102849.19;5021364;28;20015;-88
2023/05/27 02:40:24;;;;;;;;;;;;;;;7.72;100.00;102850.84;5028586;28;19938;-87
2023/05/27 02:42:50;;;;;;;;;;;;;;;7.59;100.00;102850.38;5039976;28;19925;-86
2023/05/27 02:45:15;;;;;;;;;;;;;;;7.61;100.00;102853.88;5039732;28;19970;-87
2023/05/27 02:47:40;;;;;;;;;;;;;;;7.61;100.00;102851.22;5039471;28;19920;-86
2023/05/27 02:50:06;;;;;;;;;;;;;;;7.62;100.00;102860.97;5042637;28;19983;-85
2023/05/27 02:52:31;;;;;;;;;;;;;;;7.57;100.00;102862.03;5044874;28;20024;-87
2023/05/27 02:54:56;;;;;;;;;;;;;;;7.54;100.00;102863.03;5033666;28;19939;-87
2023/05/27 02:57:21;;;;;;;;;;;;;;;7.48;100.00;102864.09;5041915;28;19921;-86
2023/05/27 02:59:47;;;;;;;;;;;;;;;7.45;100.00;102858.84;5014608;28;19917;-86
2023/05/27 03:02:12;;;;;;;;;;;;;;;7.42;100.00;102858.06;5025090;28;20499;-86
2023/05/27 03:04:38;;;;;;;;;;;;;;;7.35;100.00;102858.28;5011257;28;19959;-86
2023/05/27 03:07:03;;;;;;;;;;;;;;;7.30;100.00;102864.66;5032653;28;19975;-87
2023/05/27 03:09:29;;;;;;;;;;;;;;;7.28;100.00;102866.53;5020776;28;19921;-87
2023/05/27 03:11:54;;;;;;;;;;;;;;;7.25;100.00;102863.97;5021438;28;19925;-87
2023/05/27 03:14:19;;;;;;;;;;;;;;;7.22;100.00;102862.25;5023914;28;19917;-87
2023/05/27 03:16:46;;;;;;;;;;;;;;;7.26;100.00;102860.38;5022697;28;20402;-87
2023/05/27 03:19:11;;;;;;;;;;;;;;;7.26;100.00;102866.56;5022941;28;19978;-87
2023/05/27 03:21:36;;;;;;;;;;;;;;;7.24;100.00;102863.06;5016251;28;20015;-86
2023/05/27 03:24:02;;;;;;;;;;;;;;;7.17;100.00;102867.75;5033095;28;19992;-86
2023/05/27 03:26:28;;;;;;;;;;;;;;;7.12;100.00;102869.66;5029900;28;19931;-86
2023/05/27 03:28:53;;;;;;;;;;;;;;;7.08;100.00;102861.81;5025911;28;19913;-87
2023/05/27 03:31:18;;;;;;;;;;;;;;;7.00;100.00;102862.03;5045378;28;20002;-87
2023/05/27 03:33:43;;;;;;;;;;;;;;;7.03;100.00;102859.25;5024602;28;20008;-86
2023/05/27 03:36:09;;;;;;;;;;;;;;;7.02;100.00;102854.84;5035223;28;20097;-87
2023/05/27 03:38:34;;;;;;;;;;;;;;;6.96;100.00;102850.56;5046909;28;19943;-87
2023/05/27 03:40:59;;;;;;;;;;;;;;;6.95;100.00;102851.47;5022653;28;19939;-87
2023/05/27 03:43:24;;;;;;;;;;;;;;;6.97;100.00;102846.13;5025796;28;19983;-87
2023/05/27 03:45:50;;;;;;;;;;;;;;;6.97;100.00;102846.97;5047265;28;20004;-86
2023/05/27 03:48:15;;;;;;;;;;;;;;;7.01;100.00;102845.97;5026979;28;19917;-86
2023/05/27 03:50:40;;;;;;;;;;;;;;;6.99;100.00;102847.81;5026458;28;19928;-86
2023/05/27 03:53:05;;;;;;;;;;;;;;;7.02;100.00;102845.03;5022716;28;19942;-87
2023/05/27 03:55:30;;;;;;;;;;;;;;;7.03;100.00;102840.56;5041031;28;20364;-86
2023/05/27 03:57:56;;;;;;;;;;;;;;;7.03;100.00;102840.56;5039254;28;19921;-86
2023/05/27 04:00:21;;;;;;;;;;;;;;;7.07;100.00;102836.88;5024852;28;19947;-86
2023/05/27 04:02:47;;;;;;;;;;;;;;;7.09;100.00;102834.16;5022692;28;20362;-86
2023/05/27 04:05:12;;;;;;;;;;;;;;;7.07;100.00;102836.00;5043488;28;19913;-86
2023/05/27 04:07:37;;;;;;;;;;;;;;;7.04;100.00;102835.19;5024672;28;20437;-86
2023/05/27 04:10:03;;;;;;;;;;;;;;;7.08;100.00;102832.44;5019008;28;19927;-86
2023/05/27 04:12:28;;;;;;;;;;;;;;;7.11;100.00;102835.00;5021479;28;19975;-86
2023/05/27 04:14:53;;;;;;;;;;;;;;;7.12;100.00;102834.09;5019847;28;19913;-87
2023/05/27 04:17:18;;;;;;;;;;;;;;;7.13;100.00;102836.69;5047683;28;20058;-86
2023/05/27 04:19:44;;;;;;;;;;;;;;;7.12;100.00;102821.59;5020552;28;19931;-86
2023/05/27 04:22:09;;;;;;;;;;;;;;;7.09;100.00;102828.84;5039133;28;19951;-87
2023/05/27 04:24:35;;;;;;;;;;;;;;;7.11;100.00;102827.00;5023921;28;20044;-86
2023/05/27 04:27:01;;;;;;;;;;;;;;;7.12;100.00;102829.59;5025211;28;19995;-86
2023/05/27 04:29:27;;;;;;;;;;;;;;;7.10;100.00;102823.44;5027534;28;19928;-87
2023/05/27 04:31:52;;;;;;;;;;;;;;;7.11;100.00;102818.97;5020456;28;19925;-87
2023/05/27 04:34:17;;;;;;;;;;;;;;;7.11;100.00;102827.00;5024848;28;19936;-86
2023/05/27 04:36:43;;;;;;;;;;;;;;;7.11;100.00;102811.81;5057271;28;19940;-87
2023/05/27 04:39:11;;;;;;;;;;;;;;;7.25;100.00;102821.22;5027835;28;19928;-87
2023/05/27 04:41:36;;;;;;;;;;;;;;;7.28;100.00;102821.97;5026497;28;20044;-86
2023/05/27 04:44:01;;;;;;;;;;;;;;;7.33;100.00;102816.47;5026739;28;19921;-86
2023/05/27 04:46:27;;;;;;;;;;;;;;;7.43;100.00;102819.72;5061868;28;19960;-86
2023/05/27 04:48:52;;;;;;;;;;;;;;;7.50;100.00;102810.56;5039518;28;20012;-87
2023/05/27 04:51:18;;;;;;;;;;;;;;;7.50;100.00;102816.81;5024691;28;19917;-86
2023/05/27 04:53:45;;;;;;;;;;;;;;;7.60;100.00;102817.38;5022113;28;19917;-86
2023/05/27 04:56:14;;;;;;;;;;;;;;;7.69;100.00;102813.50;5027695;28;19917;-86
2023/05/27 04:58:39;;;;;;;;;;;;;;;7.71;100.00;102809.00;5025136;28;19913;-86
2023/05/27 05:01:05;;;;;;;;;;;;;;;7.81;100.00;102804.19;5020720;28;19968;-86
2023/05/27 05:03:39;;;;;;;;;;;;;;;7.85;100.00;102805.84;5025361;28;19932;-87
2023/05/27 05:06:04;;;;;;;;;;;;;;;7.87;100.00;102809.34;5030544;28;19921;-87
2023/05/27 05:08:30;;;;;;;;;;;;;;;7.93;100.00;102800.22;5025278;28;19921;-87
2023/05/27 05:10:55;;;;;;;;;;;;;;;8.04;100.00;102800.72;5024586;28;20632;-86
2023/05/27 05:13:20;;;;;;;;;;;;;;;8.13;100.00;102802.19;5041490;28;20047;-87
2023/05/27 05:15:46;;;;;;;;;;;;;;;8.14;100.00;102809.28;5035202;28;20065;-87
2023/05/27 05:18:13;;;;;;;;;;;;;;;8.25;100.00;102808.88;5017544;28;19924;-87
2023/05/27 05:20:38;;;;;;;;;;;;;;;8.38;100.00;102803.97;5038286;28;19920;-87
2023/05/27 05:23:04;;;;;;;;;;;;;;;8.37;100.00;102807.56;5019724;28;19921;-88
2023/05/27 05:25:30;;;;;;;;;;;;;;;8.43;100.00;102798.44;5024261;28;19925;-86
2023/05/27 05:27:55;;;;;;;;;;;;;;;8.48;100.00;102799.13;5043392;28;19928;-86
2023/05/27 05:30:20;;;;;;;;;;;;;;;8.56;100.00;102797.09;5018299;28;20691;-87
2023/05/27 05:32:47;;;;;;;;;;;;;;;8.74;100.00;102797.28;5056306;28;19944;-87
2023/05/27 05:35:12;;;;;;;;;;;;;;;8.73;100.00;102792.88;5021563;28;19963;-87
2023/05/27 05:37:37;;;;;;;;;;;;;;;8.83;100.00;102794.28;5017419;28;20409;-88
2023/05/27 05:40:03;;;;;;;;;;;;;;;8.98;100.00;102793.66;5033564;28;19924;-88
2023/05/27 05:42:28;;;;;;;;;;;;;;;9.13;100.00;102788.63;5026303;28;19921;-87
2023/05/27 05:44:53;;;;;;;;;;;;;;;9.23;100.00;102794.47;5018792;28;19921;-88
2023/05/27 05:47:18;;;;;;;;;;;;;;;9.42;100.00;102791.88;5053009;28;19924;-88
2023/05/27 05:49:44;;;;;;;;;;;;;;;9.47;100.00;102795.25;5018246;28;19924;-87
2023/05/27 05:52:09;;;;;;;;;;;;;;;9.59;100.00;102794.75;5036571;28;19927;-87
2023/05/27 05:54:34;;;;;;;;;;;;;;;9.69;100.00;102787.19;5041311;28;19931;-88
2023/05/27 05:57:00;;;;;;;;;;;;;;;9.77;100.00;102783.31;5041149;28;19921;-87
2023/05/27 05:59:26;;;;;;;;;;;;;;;9.81;100.00;102782.22;5024615;28;19924;-87
2023/05/27 06:01:51;;;;;;;;;;;;;;;9.81;100.00;102790.25;5026286;28;19932;-86
2023/05/27 06:04:17;;;;;;;;;;;;;;;9.93;100.00;102788.88;5025717;28;19921;-87
2023/05/27 06:06:42;;;;;;;;;;;;;;;10.08;100.00;102790.88;5043914;28;19928;-87
2023/05/27 06:09:08;;;;;;;;;;;;;;;10.26;100.00;102793.66;5014293;28;19921;-87
2023/05/27 06:11:33;;;;;;;;;;;;;;;10.30;100.00;102789.91;5041242;28;19921;-86
2023/05/27 06:13:58;;;;;;;;;;;;;;;10.42;100.00;102780.44;5036234;28;19921;-86
2023/05/27 06:16:24;;;;;;;;;;;;;;;10.33;100.00;102781.69;5046160;28;20048;-85
2023/05/27 06:18:49;;;;;;;;;;;;;;;10.46;100.00;102780.22;5020031;28;19917;-87
2023/05/27 06:21:15;;;;;;;;;;;;;;;10.52;100.00;102775.50;5021614;28;20389;-86
2023/05/27 06:23:40;;;;;;;;;;;;;;;10.66;100.00;102770.38;5025884;28;20054;-86
2023/05/27 06:26:08;;;;;;;;;;;;;;;10.71;100.00;102771.03;5043821;28;20390;-87
2023/05/27 06:28:33;;;;;;;;;;;;;;;10.79;100.00;102770.66;5030122;28;20564;-87
2023/05/27 06:30:58;;;;;;;;;;;;;;;10.92;100.00;102774.47;5039420;28;19932;-87
2023/05/27 06:33:36;;;;;;;;;;;;;;;10.95;100.00;102760.03;5043033;28;19963;-87
2023/05/27 06:36:01;;;;;;;;;;;;;;;10.78;100.00;102774.28;5028375;28;19943;-87
2023/05/27 06:38:26;;;;;;;;;;;;;;;11.00;100.00;102770.56;5028671;28;20238;-88
2023/05/27 06:40:52;;;;;;;;;;;;;;;11.21;100.00;102782.94;5037835;28;19921;-88
2023/05/27 06:43:17;;;;;;;;;;;;;;;11.19;100.00;102771.38;5032519;28;19921;-88
2023/05/27 06:45:42;;;;;;;;;;;;;;;11.03;100.00;102762.34;5020135;28;19955;-86
2023/05/27 06:48:07;;;;;;;;;;;;;;;11.17;100.00;102753.59;5036767;28;19925;-87
2023/05/27 06:50:33;;;;;;;;;;;;;;;11.38;100.00;102757.03;5017625;28;19980;-87
2023/05/27 06:52:59;;;;;;;;;;;;;;;11.48;100.00;102754.75;5039453;28;20010;-87
2023/05/27 06:55:24;;;;;;;;;;;;;;;11.58;100.00;102755.13;5017560;28;19963;-86
2023/05/27 06:57:49;;;;;;;;;;;;;;;11.76;100.00;102745.25;5039573;28;20363;-88
2023/05/27 07:00:15;;;;;;;;;;;;;;;11.85;100.00;102740.25;5039299;28;19941;-88
2023/05/27 07:02:40;;;;;;;;;;;;;;;11.89;100.00;102746.31;5040622;28;20265;-88
2023/05/27 07:05:06;;;;;;;;;;;;;;;11.99;100.00;102741.34;5021346;28;20228;-87
2023/05/27 07:07:31;;;;;;;;;;;;;;;12.10;100.00;102738.06;5040554;28;19932;-87
2023/05/27 07:09:56;;;;;;;;;;;;;;;12.20;100.00;102741.13;5038206;28;19932;-88
2023/05/27 07:12:23;;;;;;;;;;;;;;;12.14;100.00;102736.97;5040455;28;19960;-87
2023/05/27 07:14:48;;;;;;;;;;;;;;;12.34;100.00;102743.06;5056727;28;19917;-87
2023/05/27 07:17:13;;;;;;;;;;;;;;;12.44;100.00;102745.19;5039283;28;19931;-87
2023/05/27 07:19:39;;;;;;;;;;;;;;;12.63;100.00;102741.47;5026260;28;19939;-87
2023/05/27 07:22:07;;;;;;;;;;;;;;;12.45;100.00;102746.06;5021668;28;19929;-87
2023/05/27 07:24:32;;;;;;;;;;;;;;;12.61;100.00;102743.38;5041648;28;20685;-88
2023/05/27 07:26:57;;;;;;;;;;;;;;;12.63;100.00;102743.28;5039124;28;20004;-87
2023/05/27 07:29:23;;;;;;;;;;;;;;;12.69;100.00;102733.03;5020467;28;20019;-88
2023/05/27 07:31:48;;;;;;;;;;;;;;;12.82;100.00;102726.94;5019042;28;19918;-88
2023/05/27 07:34:13;;;;;;;;;;;;;;;12.75;100.00;102729.13;5040294;28;19932;-85
2023/05/27 07:36:38;;;;;;;;;;;;;;;13.00;100.00;102736.66;5042919;28;19928;-87
2023/05/27 07:39:04;;;;;;;;;;;;;;;13.05;100.00;102722.91;5025440;28;20317;-85
2023/05/27 07:41:29;;;;;;;;;;;;;;;13.22;100.00;102731.84;5041018;28;20360;-86
2023/05/27 07:43:55;;;;;;;;;;;;;;;13.28;100.00;102721.53;5041007;28;20012;-84
2023/05/27 07:46:20;;;;;;;;;;;;;;;13.48;100.00;102725.78;5028119;28;19924;-88
2023/05/27 07:48:45;;;;;;;;;;;;;;;13.35;100.00;102714.84;5036237;28;19924;-88
2023/05/27 07:51:11;;;;;;;;;;;;;;;13.15;100.00;102707.06;5023266;28;19986;-87
2023/05/27 07:53:36;;;;;;;;;;;;;;;13.39;100.00;102710.09;5040499;28;19927;-86
2023/05/27 07:56:01;;;;;;;;;;;;;;;13.61;100.00;102698.06;5037582;28;19917;-86
2023/05/27 07:58:26;;;;;;;;;;;;;;;13.81;100.00;102699.50;5023282;28;19956;-87
2023/05/27 08:00:52;;;;;;;;;;;;;;;13.95;100.00;102702.25;5020478;28;19921;-85
2023/05/27 08:03:17;;;;;;;;;;;;;;;14.14;100.00;102695.66;5019632;28;20327;-87
2023/05/27 08:05:42;;;;;;;;;;;;;;;14.25;100.00;102690.47;5025904;28;19925;-89
2023/05/27 08:08:08;;;;;;;;;;;;;;;14.41;100.00;102697.56;5041225;28;19928;-90
2023/05/27 08:10:33;;;;;;;;;;;;;;;14.44;100.00;102691.97;5041859;28;19925;-87
2023/05/27 08:12:59;;;;;;;;;;;;;;;14.38;100.00;102685.13;5019968;28;20627;-86
2023/05/27 08:15:24;;;;;;;;;;;;;;;14.17;100.00;102686.53;5018148;28;20251;-93
2023/05/27 08:17:49;;;;;;;;;;;;;;;14.42;100.00;102679.53;5031625;28;19961;-88
2023/05/27 08:20:14;;;;;;;;;;;;;;;14.70;100.00;102679.47;5022001;28;19967;-89
2023/05/27 08:22:41;;;;;;;;;;;;;;;14.87;100.00;102673.91;5027262;28;19925;-90
2023/05/27 08:25:06;;;;;;;;;;;;;;;14.98;100.00;102669.50;5039415;28;19925;-90
2023/05/27 08:27:50;;;;;;;;;;;;;;;15.08;100.00;102661.66;5023405;28;20802;-89
2023/05/27 08:30:16;;;;;;;;;;;;;;;15.04;100.00;102660.13;5045491;28;19943;-90
2023/05/27 08:32:41;;;;;;;;;;;;;;;15.48;100.00;102652.63;5021214;28;19967;-89
2023/05/27 08:35:15;;;;;;;;;;;;;;;15.59;98.68;102652.72;5020440;28;19921;-87
2023/05/27 08:37:40;;;;;;;;;;;;;;;15.67;100.00;102649.44;5026902;28;19920;-90
2023/05/27 08:40:16;;;;;;;;;;;;;;;15.65;94.74;102645.97;5026859;28;19925;-90
2023/05/27 08:42:41;;;;;;;;;;;;;;;15.84;100.00;102641.97;5008430;28;20354;-90
2023/05/27 08:45:07;;;;;;;;;;;;;;;16.07;100.00;102647.59;5014196;28;20367;-89
2023/05/27 08:47:32;;;;;;;;;;;;;;;16.09;93.32;102651.06;5018038;28;19921;-87
2023/05/27 08:50:00;;;;;;;;;;;;;;;16.17;100.00;102635.97;5021673;28;20428;-90
2023/05/27 08:52:29;;;;;;;;;;;;;;;16.38;95.87;102627.25;5012752;28;20249;-86
2023/05/27 08:54:55;;;;;;;;;;;;;;;16.63;100.00;102620.84;5013892;28;19921;-89
2023/05/27 08:57:24;;;;;;;;;;;;;;;16.63;93.97;102620.84;5011011;28;20331;-89
2023/05/27 08:59:50;;;;;;;;;;;;;;;16.61;95.55;102619.22;5029981;28;20600;-90
2023/05/27 09:02:20;;;;;;;;;;;;;;;16.94;92.36;102618.53;5024471;28;19928;-88
2023/05/27 09:04:45;;;;;;;;;;;;;;;17.06;88.03;102611.31;5030488;28;20707;-88
2023/05/27 09:07:11;;;;;;;;;;;;;;;17.13;84.27;102608.09;5015112;28;19931;-90
2023/05/27 09:09:36;;;;;;;;;;;;;;;16.89;86.31;102617.13;5017468;28;19925;-90
2023/05/27 09:12:02;;;;;;;;;;;;;;;17.20;94.92;102607.53;5014787;28;19921;-91
2023/05/27 09:14:27;;;;;;;;;;;;;;;17.35;81.23;102610.84;5014666;28;20043;-91
2023/05/27 09:16:52;;;;;;;;;;;;;;;17.58;84.96;102602.75;5016667;28;20217;-90
2023/05/27 09:19:18;;;;;;;;;;;;;;;17.63;81.11;102600.50;5040005;28;19921;-87
2023/05/27 09:21:43;;;;;;;;;;;;;;;17.80;86.41;102601.03;5008011;28;19950;-90
2023/05/27 09:24:12;;;;;;;;;;;;;;;17.95;73.33;102609.78;5033883;28;20000;-91
2023/05/27 09:26:37;;;;;;;;;;;;;;;17.60;77.07;102598.06;5017877;28;20354;-88
2023/05/27 09:29:06;;;;;;;;;;;;;;;17.70;87.35;102600.91;5040903;28;19946;-89
2023/05/27 09:31:32;;;;;;;;;;;;;;;17.83;87.12;102600.78;5023841;28;19927;-90
2023/05/27 09:33:57;;;;;;;;;;;;;;;18.04;76.71;102606.31;5018073;28;19925;-88
2023/05/27 09:36:23;;;;;;;;;;;;;;;18.36;76.70;102600.06;5033458;28;20635;-88
2023/05/27 09:38:50;;;;;;;;;;;;;;;18.13;72.22;102589.25;5043948;28;19951;-86
2023/05/27 09:41:22;;;;;;;;;;;;;;;18.08;72.53;102594.22;5025081;28;19925;-89
2023/05/27 09:43:53;;;;;;;;;;;;;;;18.17;78.56;102580.84;5022060;28;20370;-89
2023/05/27 09:46:26;;;;;;;;;;;;;;;18.48;71.99;102587.31;5018866;28;19925;-87
2023/05/27 09:48:51;;;;;;;;;;;;;;;18.43;68.02;102587.69;5029384;28;19940;-85
2023/05/27 09:51:16;;;;;;;;;;;;;;;18.41;69.96;102581.53;5038914;28;19920;-88
2023/05/27 09:53:41;;;;;;;;;;;;;;;18.72;74.95;102568.03;5021005;28;19925;-87
2023/05/27 09:56:21;;;;;;;;;;;;;;;19.10;74.51;102573.03;5026804;28;20025;-90
2023/05/27 09:58:47;;;;;;;;;;;;;;;19.44;74.15;102573.69;5012837;28;19925;-91
2023/05/27 10:01:13;;;;;;;;;;;;;;;19.75;68.62;102572.81;5007997;28;20062;-91
2023/05/27 10:03:38;;;;;;;;;;;;;;;19.81;61.57;102565.94;5010125;28;20476;-88
2023/05/27 10:06:04;;;;;;;;;;;;;;;19.92;72.04;102568.59;5023784;28;19944;-90
2023/05/27 10:08:29;;;;;;;;;;;;;;;19.99;70.36;102558.84;5018538;28;20452;-86
2023/05/27 10:10:55;;;;;;;;;;;;;;;20.27;63.45;102558.16;5016254;28;19924;-87
2023/05/27 10:13:20;;;;;;;;;;;;;;;20.57;60.79;102543.53;5010184;28;20097;-87
2023/05/27 10:15:46;;;;;;;;;;;;;;;20.71;56.58;102544.94;5031932;28;20371;-88
2023/05/27 10:18:21;;;;;;;;;;;;;;;20.36;55.20;102552.72;5027450;28;19924;-85
2023/05/27 10:20:48;;;;;;;;;;;;;;;20.34;55.22;102551.16;5013823;28;19924;-89
2023/05/27 10:23:14;;;;;;;;;;;;;;;20.72;55.30;102551.28;5027142;28;22096;-88
2023/05/27 10:25:41;;;;;;;;;;;;;;;20.92;56.72;102543.97;5028131;28;19979;-89
2023/05/27 10:28:07;;;;;;;;;;;;;;;20.76;52.47;102548.13;5010319;28;20088;-89
2023/05/27 10:30:42;;;;;;;;;;;;;;;20.98;62.46;102541.50;5019088;28;19921;-89
2023/05/27 10:33:08;;;;;;;;;;;;;;;21.04;55.15;102539.19;5012193;28;20363;-86
2023/05/27 10:35:38;;;;;;;;;;;;;;;21.61;54.75;102541.88;5047260;28;20128;-89
2023/05/27 10:38:06;;;;;;;;;;;;;;;22.16;56.29;102530.00;5013792;28;20015;-88
2023/05/27 10:40:31;;;;;;;;;;;;;;;22.54;52.80;102535.34;5013669;28;19951;-90
2023/05/27 10:43:01;;;;;;;;;;;;;;;22.52;54.25;102528.31;5018034;28;20501;-89
2023/05/27 10:45:33;;;;;;;;;;;;;;;22.91;52.43;102522.44;5032563;28;20016;-90
2023/05/27 10:47:59;;;;;;;;;;;;;;;22.93;47.20;102528.63;5014214;28;19974;-88
2023/05/27 10:50:24;;;;;;;;;;;;;;;22.36;47.40;102523.53;5020827;28;20445;-86
2023/05/27 10:52:49;;;;;;;;;;;;;;;22.17;46.59;102529.00;5044401;28;19928;-87
2023/05/27 10:55:15;;;;;;;;;;;;;;;22.68;44.18;102516.66;5046931;28;19927;-87
2023/05/27 10:57:41;;;;;;;;;;;;;;;22.94;49.89;102507.59;5049346;28;19960;-87
2023/05/27 11:00:08;;;;;;;;;;;;;;;22.75;46.20;102501.31;5031481;28;20348;-85
2023/05/27 11:02:36;;;;;;;;;;;;;;;22.75;46.33;102507.63;5023868;28;20288;-86
2023/05/27 11:05:13;;;;;;;;;;;;;;;23.06;47.24;102504.41;5030675;28;19972;-87
2023/05/27 11:07:39;;;;;;;;;;;;;;;23.32;46.73;102498.06;5028084;28;19928;-89
2023/05/27 11:10:06;;;;;;;;;;;;;;;24.09;45.20;102497.13;5031423;28;20379;-89
2023/05/27 11:12:31;;;;;;;;;;;;;;;24.81;44.07;102478.25;5026562;28;19943;-88
2023/05/27 11:14:57;;;;;;;;;;;;;;;24.69;47.18;102495.06;5039117;28;20391;-86
2023/05/27 11:17:23;;;;;;;;;;;;;;;23.73;47.12;102491.00;5021780;28;19912;-87
2023/05/27 11:19:49;;;;;;;;;;;;;;;24.76;45.77;102478.78;5022360;28;19955;-89
2023/05/27 11:22:16;;;;;;;;;;;;;;;25.24;44.95;102478.81;5039480;28;19932;-85
2023/05/27 11:24:42;;;;;;;;;;;;;;;25.95;40.88;102480.69;5010717;28;19921;-89
2023/05/27 11:27:08;;;;;;;;;;;;;;;25.72;38.32;102476.03;5038129;28;19917;-86
2023/05/27 11:29:34;;;;;;;;;;;;;;;25.82;39.14;102466.72;5033429;28;20287;-89
2023/05/27 11:31:59;;;;;;;;;;;;;;;26.46;39.34;102454.50;5023074;28;19954;-88
2023/05/27 11:34:25;;;;;;;;;;;;;;;25.23;39.08;102462.50;5029173;28;20370;-85
2023/05/27 11:36:50;;;;;;;;;;;;;;;25.28;38.61;102460.09;5041059;28;19967;-87
2023/05/27 11:39:18;;;;;;;;;;;;;;;25.30;38.74;102450.63;5024201;28;20020;-85
2023/05/27 11:41:53;;;;;;;;;;;;;;;24.96;47.31;102443.53;5022533;28;19990;-88
2023/05/27 11:44:19;;;;;;;;;;;;;;;25.62;39.09;102436.91;5031844;28;19925;-87
2023/05/27 11:46:44;;;;;;;;;;;;;;;26.26;38.89;102433.03;5038350;28;20394;-85
2023/05/27 11:49:10;;;;;;;;;;;;;;;26.82;39.21;102418.03;5024298;28;20147;-90
2023/05/27 11:51:40;;;;;;;;;;;;;;;27.46;39.67;102427.50;5037770;28;19932;-89
2023/05/27 11:54:05;;;;;;;;;;;;;;;28.10;37.42;102434.16;5027051;28;20280;-88
2023/05/27 11:56:30;;;;;;;;;;;;;;;28.04;34.88;102432.19;5023963;28;19917;-90
2023/05/27 11:58:56;;;;;;;;;;;;;;;27.11;34.55;102427.31;5023980;28;19925;-89
2023/05/27 12:01:21;;;;;;;;;;;;;;;27.83;33.64;102424.75;5020865;28;19925;-90
2023/05/27 12:03:47;;;;;;;;;;;;;;;28.48;33.99;102416.44;5035898;28;20018;-87
2023/05/27 12:06:12;;;;;;;;;;;;;;;28.69;33.79;102401.69;5040640;28;19956;-89
2023/05/27 12:08:38;;;;;;;;;;;;;;;27.38;35.57;102419.38;5029527;28;19921;-89
2023/05/27 12:11:03;;;;;;;;;;;;;;;27.65;35.47;102412.28;5018057;28;19920;-90
2023/05/27 12:13:29;;;;;;;;;;;;;;;28.10;37.17;102395.50;5050169;28;19925;-87
2023/05/27 12:15:54;;;;;;;;;;;;;;;28.47;35.02;102392.63;5032858;28;19921;-91
2023/05/27 12:18:20;;;;;;;;;;;;;;;27.81;34.17;102397.38;5022157;28;19917;-86
2023/05/27 12:20:45;;;;;;;;;;;;;;;27.07;36.34;102392.91;5027005;28;20305;-88
2023/05/27 12:23:10;;;;;;;;;;;;;;;27.15;37.44;102390.03;5046389;28;19931;-88
2023/05/27 12:25:35;;;;;;;;;;;;;;;26.86;36.04;102383.53;5040994;28;19925;-84
2023/05/27 12:28:01;;;;;;;;;;;;;;;25.76;34.63;102377.50;5026213;28;20819;-84
2023/05/27 12:30:26;;;;;;;;;;;;;;;26.86;35.89;102374.41;5042090;28;20367;-87